createdAt,value
2022-07-28T00:02:56.024Z,459
2022-07-28T00:08:26.864Z,461
2022-07-28T00:13:56.651Z,465
2022-07-28T00:19:27.321Z,458
2022-07-28T00:24:57.927Z,456
2022-07-28T00:30:28.489Z,449
2022-07-28T00:35:59.103Z,450
2022-07-28T00:41:29.848Z,443
2022-07-28T00:47:00.783Z,447
2022-07-28T00:52:31.563Z,444
2022-07-28T00:58:01.578Z,446
2022-07-28T01:03:32.185Z,445
2022-07-28T01:09:02.778Z,443
2022-07-28T01:14:33.398Z,445
2022-07-28T01:20:03.985Z,445
2022-07-28T01:25:34.751Z,439
2022-07-28T01:31:04.533Z,437
2022-07-28T01:36:35.117Z,433
2022-07-28T01:42:05.751Z,432
2022-07-28T01:47:36.357Z,436
2022-07-28T01:53:06.895Z,435
2022-07-28T01:58:37.662Z,432
2022-07-28T02:04:08.501Z,435
2022-07-28T02:09:39.362Z,439
2022-07-28T02:15:09.027Z,436
2022-07-28T02:20:39.634Z,436
2022-07-28T02:26:10.252Z,432
2022-07-28T02:31:42.100Z,431
2022-07-28T02:37:11.448Z,432
2022-07-28T02:42:42.301Z,439
2022-07-28T02:48:11.961Z,433
2022-07-28T02:53:42.603Z,434
2022-07-28T02:59:13.199Z,433
2022-07-28T03:04:42.874Z,430
2022-07-28T03:10:13.552Z,426
2022-07-28T03:15:44.158Z,427
2022-07-28T03:21:14.703Z,422
2022-07-28T03:26:45.302Z,425
2022-07-28T03:32:15.896Z,427
2022-07-28T03:37:46.545Z,424
2022-07-28T03:43:17.488Z,430
2022-07-28T03:48:48.370Z,428
2022-07-28T03:54:18.080Z,434
2022-07-28T03:59:48.688Z,434
2022-07-28T04:05:19.297Z,435
2022-07-28T04:10:50.090Z,441
2022-07-28T04:16:20.740Z,439
2022-07-28T04:21:51.449Z,437
2022-07-28T04:27:22.305Z,437
2022-07-28T04:32:53.185Z,435
2022-07-28T04:38:23.078Z,435
2022-07-28T04:43:52.666Z,434
2022-07-28T04:49:23.332Z,434
2022-07-28T04:54:53.883Z,435
2022-07-28T05:00:24.453Z,468
2022-07-28T05:05:55.248Z,430
2022-07-28T05:11:25.679Z,424
2022-07-28T05:16:55.363Z,421
2022-07-28T05:22:25.891Z,421
2022-07-28T05:27:56.669Z,425
2022-07-28T05:33:32.014Z,414
2022-07-28T05:38:57.658Z,412
2022-07-28T05:44:28.434Z,412
2022-07-28T05:49:59.275Z,417
2022-07-28T05:55:29.138Z,422
2022-07-28T06:00:59.935Z,430
2022-07-28T06:06:30.349Z,422
2022-07-28T06:12:00.945Z,426
2022-07-28T06:17:31.549Z,423
2022-07-28T06:23:02.231Z,425
2022-07-28T06:28:32.085Z,426
2022-07-28T06:34:02.679Z,423
2022-07-28T06:39:33.286Z,417
2022-07-28T06:45:03.878Z,423
2022-07-28T06:50:34.502Z,434
2022-07-28T06:56:05.163Z,472
2022-07-28T07:01:36.145Z,497
2022-07-28T07:07:14.743Z,497
2022-07-28T07:12:37.008Z,483
2022-07-28T07:18:07.598Z,467
2022-07-28T07:23:38.185Z,461
2022-07-28T07:29:08.803Z,458
2022-07-28T07:34:39.402Z,447
2022-07-28T07:40:10.052Z,440
2022-07-28T07:45:39.868Z,440
2022-07-28T07:51:15.321Z,440
2022-07-28T07:56:41.077Z,436
2022-07-28T08:02:11.950Z,434
2022-07-28T08:07:42.303Z,420
2022-07-28T08:13:13.035Z,428
2022-07-28T08:18:43.881Z,419
2022-07-28T08:24:27.669Z,420
2022-07-28T08:29:44.689Z,425
2022-07-28T08:35:32.470Z,419
2022-07-28T08:40:45.844Z,424
2022-07-28T08:46:16.552Z,429
2022-07-28T08:51:47.034Z,477
2022-07-28T08:57:17.775Z,433
2022-07-28T09:02:52.191Z,447
2022-07-28T09:08:19.620Z,448
2022-07-28T09:13:53.586Z,430
2022-07-28T09:19:18.644Z,410
2022-07-28T09:24:49.312Z,397
2022-07-28T09:30:19.930Z,390
2022-07-28T09:35:50.468Z,406
2022-07-28T09:41:21.173Z,401
2022-07-28T09:46:52.276Z,399
2022-07-28T09:52:22.886Z,396
2022-07-28T09:57:52.999Z,401
2022-07-28T10:03:23.848Z,413
2022-07-28T10:08:54.681Z,423
2022-07-28T10:14:25.608Z,421
2022-07-28T10:19:56.420Z,413
2022-07-28T10:25:26.480Z,406
2022-07-28T10:30:57.165Z,412
2022-07-28T10:36:27.656Z,411
2022-07-28T10:41:57.248Z,414
2022-07-28T10:47:35.703Z,408
2022-07-28T10:52:59.452Z,419
2022-07-28T10:58:29.065Z,415
2022-07-28T11:03:59.706Z,411
2022-07-28T11:09:30.279Z,414
2022-07-28T11:15:15.701Z,423
2022-07-28T11:20:31.647Z,423
2022-07-28T11:26:02.455Z,427
2022-07-28T11:31:33.331Z,429
2022-07-28T11:37:03.673Z,426
2022-07-28T11:42:34.260Z,430
2022-07-28T11:48:04.854Z,432
2022-07-28T11:53:35.445Z,440
2022-07-28T11:59:06.068Z,435
2022-07-28T12:04:36.814Z,428
2022-07-28T12:10:07.736Z,413
2022-07-28T12:15:38.575Z,418
2022-07-28T12:21:08.765Z,415
2022-07-28T12:26:41.096Z,417
2022-07-28T12:32:10.918Z,421
2022-07-28T12:37:41.317Z,421
2022-07-28T12:43:11.094Z,415
2022-07-28T12:48:41.772Z,415
2022-07-28T12:54:12.657Z,420
2022-07-28T12:59:42.870Z,418
2022-07-28T13:05:13.496Z,418
2022-07-28T13:10:44.255Z,419
2022-07-28T13:16:15.163Z,425
2022-07-28T13:21:58.621Z,427
2022-07-28T13:27:15.538Z,430
2022-07-28T13:32:46.143Z,425
2022-07-28T13:38:16.715Z,471
2022-07-28T13:43:48.200Z,456
2022-07-28T13:49:18.000Z,445
2022-07-28T13:54:48.797Z,444
2022-07-28T14:00:22.547Z,443
2022-07-28T14:05:48.816Z,443
2022-07-28T14:11:19.643Z,440
2022-07-28T14:16:50.563Z,441
2022-07-28T14:22:21.364Z,437
2022-07-28T14:27:52.209Z,436
2022-07-28T14:33:23.080Z,433
2022-07-28T14:38:54.674Z,434
2022-07-28T14:44:24.593Z,433
2022-07-28T14:49:57.179Z,433
2022-07-28T14:55:24.929Z,445
2022-07-28T15:00:55.554Z,495
2022-07-28T15:06:26.153Z,533
2022-07-28T15:11:57.022Z,581
2022-07-28T15:17:27.853Z,564
2022-07-28T15:22:57.920Z,530
2022-07-28T15:28:28.487Z,510
2022-07-28T15:33:59.073Z,504
2022-07-28T15:39:30.993Z,491
2022-07-28T15:45:01.328Z,493
2022-07-28T15:50:31.262Z,490
2022-07-28T15:56:01.853Z,593
2022-07-28T16:01:32.492Z,615
2022-07-28T16:07:03.044Z,529
2022-07-28T16:12:33.603Z,551
2022-07-28T16:18:04.195Z,505
2022-07-28T16:23:34.964Z,480
2022-07-28T16:29:04.666Z,474
2022-07-28T16:34:35.242Z,462
2022-07-28T16:40:05.853Z,463
2022-07-28T16:45:36.452Z,458
2022-07-28T16:51:07.044Z,442
2022-07-28T16:56:37.838Z,432
2022-07-28T17:02:08.741Z,443
2022-07-28T17:07:44.704Z,444
2022-07-28T17:13:09.341Z,447
2022-07-28T17:18:39.928Z,436
2022-07-28T17:24:10.534Z,439
2022-07-28T17:29:41.112Z,444
2022-07-28T17:35:34.477Z,481
2022-07-28T17:41:48.777Z,483
2022-07-28T17:47:19.622Z,509
2022-07-28T17:52:49.722Z,509
2022-07-28T17:58:24.162Z,502
2022-07-28T18:03:59.761Z,504
2022-07-28T18:09:22.329Z,515
2022-07-28T18:14:53.262Z,536
2022-07-28T18:20:22.897Z,535
2022-07-28T18:25:53.474Z,539
2022-07-28T18:31:24.210Z,535
2022-07-28T18:36:54.685Z,531
2022-07-28T18:42:25.305Z,542
2022-07-28T18:47:55.231Z,541
2022-07-28T18:53:26.004Z,536
2022-07-28T18:58:55.768Z,542
2022-07-28T19:04:26.396Z,548
2022-07-28T19:09:56.953Z,547
2022-07-28T19:15:27.610Z,549
2022-07-28T19:20:58.141Z,547
2022-07-28T19:26:28.924Z,561
2022-07-28T19:31:59.753Z,559
2022-07-28T19:37:30.597Z,550
2022-07-28T19:43:00.605Z,548
2022-07-28T19:48:31.227Z,555
2022-07-28T19:54:01.823Z,553
2022-07-28T19:59:32.421Z,576
2022-07-28T20:05:03.025Z,564
2022-07-28T20:10:33.788Z,559
2022-07-28T20:16:03.664Z,556
2022-07-28T20:21:39.292Z,561
2022-07-28T20:27:04.877Z,563
2022-07-28T20:32:35.472Z,567
2022-07-28T20:38:06.082Z,499
2022-07-28T20:43:37.406Z,536
2022-07-28T20:49:07.721Z,534
2022-07-28T20:54:37.258Z,537
2022-07-28T21:00:07.868Z,533
2022-07-28T21:05:38.499Z,527
2022-07-28T21:11:09.086Z,525
2022-07-28T21:16:39.739Z,511
2022-07-28T21:22:09.556Z,507
2022-07-28T21:27:40.125Z,502
2022-07-28T21:33:10.808Z,502
2022-07-28T21:38:41.331Z,495
2022-07-28T21:44:11.931Z,492
2022-07-28T21:49:42.562Z,484
2022-07-28T21:55:12.372Z,487
2022-07-28T22:00:43.142Z,487
2022-07-28T22:06:13.699Z,487
2022-07-28T22:11:44.178Z,491
2022-07-28T22:17:14.804Z,493
2022-07-28T22:22:45.463Z,502
2022-07-28T22:28:16.308Z,492
2022-07-28T22:33:47.165Z,487
2022-07-28T22:39:17.094Z,485
2022-07-28T22:44:47.687Z,492
2022-07-28T22:50:18.290Z,491
2022-07-28T22:55:48.862Z,488
2022-07-28T23:01:19.561Z,488
2022-07-28T23:06:50.249Z,493
2022-07-28T23:12:20.005Z,497
2022-07-28T23:17:50.584Z,497
2022-07-28T23:23:21.197Z,501
2022-07-28T23:28:51.790Z,498
2022-07-28T23:34:22.415Z,498
2022-07-28T23:39:53.186Z,496
2022-07-28T23:45:24.094Z,495
2022-07-28T23:50:54.913Z,494
2022-07-28T23:56:24.792Z,497
